sensor_id;sensor_type;location;lat;lon;timestamp;temperature;humidity
16285;DHT22;8250;52.426;9.450;2022-08-01T00:02:13;20.20;99.90
16285;DHT22;8250;52.426;9.450;2022-08-01T00:04:40;20.20;99.90
16285;DHT22;8250;52.426;9.450;2022-08-01T00:07:07;20.10;99.90
16285;DHT22;8250;52.426;9.450;2022-08-01T00:09:35;20.20;99.90
16285;DHT22;8250;52.426;9.450;2022-08-01T00:12:02;20.10;99.90
16285;DHT22;8250;52.426;9.450;2022-08-01T00:14:30;20.10;99.90
16285;DHT22;8250;52.426;9.450;2022-08-01T00:16:57;20.10;99.90
16285;DHT22;8250;52.426;9.450;2022-08-01T00:19:24;20.10;99.90
16285;DHT22;8250;52.426;9.450;2022-08-01T00:21:51;20.10;99.90
16285;DHT22;8250;52.426;9.450;2022-08-01T00:24:18;20.10;99.90
16285;DHT22;8250;52.426;9.450;2022-08-01T00:26:46;20.10;99.90
16285;DHT22;8250;52.426;9.450;2022-08-01T00:29:13;20.10;99.90
16285;DHT22;8250;52.426;9.450;2022-08-01T00:31:39;20.10;99.90
16285;DHT22;8250;52.426;9.450;2022-08-01T00:34:06;20.10;99.90
16285;DHT22;8250;52.426;9.450;2022-08-01T00:36:33;20.10;99.90
16285;DHT22;8250;52.426;9.450;2022-08-01T00:39:00;20.10;99.90
16285;DHT22;8250;52.426;9.450;2022-08-01T00:41:27;20.10;99.90
16285;DHT22;8250;52.426;9.450;2022-08-01T00:43:55;20.10;99.90
16285;DHT22;8250;52.426;9.450;2022-08-01T00:46:22;20.10;99.90
16285;DHT22;8250;52.426;9.450;2022-08-01T00:48:49;20.10;99.90
16285;DHT22;8250;52.426;9.450;2022-08-01T00:51:17;20.10;99.90
16285;DHT22;8250;52.426;9.450;2022-08-01T00:53:44;20.00;99.90
16285;DHT22;8250;52.426;9.450;2022-08-01T00:56:11;20.10;99.90
16285;DHT22;8250;52.426;9.450;2022-08-01T00:58:38;20.10;99.90
16285;DHT22;8250;52.426;9.450;2022-08-01T01:01:06;20.10;99.90
16285;DHT22;8250;52.426;9.450;2022-08-01T01:03:33;20.00;99.90
16285;DHT22;8250;52.426;9.450;2022-08-01T01:06:07;20.00;99.90
16285;DHT22;8250;52.426;9.450;2022-08-01T01:08:42;20.00;99.90
16285;DHT22;8250;52.426;9.450;2022-08-01T01:11:13;20.00;99.90
16285;DHT22;8250;52.426;9.450;2022-08-01T01:13:43;20.00;99.90
16285;DHT22;8250;52.426;9.450;2022-08-01T01:16:14;20.00;99.90
16285;DHT22;8250;52.426;9.450;2022-08-01T01:18:45;20.00;99.90
16285;DHT22;8250;52.426;9.450;2022-08-01T01:21:26;20.00;99.90
16285;DHT22;8250;52.426;9.450;2022-08-01T01:24:00;20.00;99.90
16285;DHT22;8250;52.426;9.450;2022-08-01T01:26:37;20.00;99.90
16285;DHT22;8250;52.426;9.450;2022-08-01T01:29:11;20.00;99.90
16285;DHT22;8250;52.426;9.450;2022-08-01T01:31:43;20.00;99.90
16285;DHT22;8250;52.426;9.450;2022-08-01T01:34:13;20.00;99.90
16285;DHT22;8250;52.426;9.450;2022-08-01T01:36:42;20.00;99.90
16285;DHT22;8250;52.426;9.450;2022-08-01T01:39:11;20.00;99.90
16285;DHT22;8250;52.426;9.450;2022-08-01T01:41:40;20.00;99.90
16285;DHT22;8250;52.426;9.450;2022-08-01T01:44:10;19.90;99.90
16285;DHT22;8250;52.426;9.450;2022-08-01T01:46:39;19.90;99.90
16285;DHT22;8250;52.426;9.450;2022-08-01T01:49:08;19.90;99.90
16285;DHT22;8250;52.426;9.450;2022-08-01T01:51:38;19.90;99.90
16285;DHT22;8250;52.426;9.450;2022-08-01T01:54:07;19.90;99.90
16285;DHT22;8250;52.426;9.450;2022-08-01T01:56:35;19.80;99.90
16285;DHT22;8250;52.426;9.450;2022-08-01T01:59:18;19.80;99.90
16285;DHT22;8250;52.426;9.450;2022-08-01T02:01:47;19.80;99.90
16285;DHT22;8250;52.426;9.450;2022-08-01T02:04:16;19.80;99.90
16285;DHT22;8250;52.426;9.450;2022-08-01T02:06:45;19.80;99.90
16285;DHT22;8250;52.426;9.450;2022-08-01T02:09:15;19.70;99.90
16285;DHT22;8250;52.426;9.450;2022-08-01T02:11:45;19.80;99.90
16285;DHT22;8250;52.426;9.450;2022-08-01T02:14:14;19.80;99.90
16285;DHT22;8250;52.426;9.450;2022-08-01T02:16:44;19.80;99.90
16285;DHT22;8250;52.426;9.450;2022-08-01T02:19:14;19.70;99.90
16285;DHT22;8250;52.426;9.450;2022-08-01T02:21:52;19.70;99.90
16285;DHT22;8250;52.426;9.450;2022-08-01T02:24:24;19.70;99.90
16285;DHT22;8250;52.426;9.450;2022-08-01T02:26:58;19.80;99.90
16285;DHT22;8250;52.426;9.450;2022-08-01T02:29:38;19.70;99.90
16285;DHT22;8250;52.426;9.450;2022-08-01T02:32:08;19.80;99.90
16285;DHT22;8250;52.426;9.450;2022-08-01T02:34:36;19.70;99.90
16285;DHT22;8250;52.426;9.450;2022-08-01T02:37:03;19.70;99.90
16285;DHT22;8250;52.426;9.450;2022-08-01T02:39:32;19.70;99.90
16285;DHT22;8250;52.426;9.450;2022-08-01T02:42:06;19.80;99.90
16285;DHT22;8250;52.426;9.450;2022-08-01T02:44:39;19.80;99.90
16285;DHT22;8250;52.426;9.450;2022-08-01T02:47:08;19.80;99.90
16285;DHT22;8250;52.426;9.450;2022-08-01T02:49:39;19.70;99.90
16285;DHT22;8250;52.426;9.450;2022-08-01T02:52:12;19.70;99.90
16285;DHT22;8250;52.426;9.450;2022-08-01T02:54:40;19.70;99.90
16285;DHT22;8250;52.426;9.450;2022-08-01T02:57:09;19.70;99.90
16285;DHT22;8250;52.426;9.450;2022-08-01T02:59:38;19.70;99.90
16285;DHT22;8250;52.426;9.450;2022-08-01T03:02:07;19.70;99.90
16285;DHT22;8250;52.426;9.450;2022-08-01T03:04:35;19.70;99.90
16285;DHT22;8250;52.426;9.450;2022-08-01T03:07:04;19.60;99.90
16285;DHT22;8250;52.426;9.450;2022-08-01T03:09:36;19.60;99.90
16285;DHT22;8250;52.426;9.450;2022-08-01T03:12:06;19.60;99.90
16285;DHT22;8250;52.426;9.450;2022-08-01T03:14:39;19.50;99.90
16285;DHT22;8250;52.426;9.450;2022-08-01T03:17:07;19.60;99.90
16285;DHT22;8250;52.426;9.450;2022-08-01T03:19:35;19.60;99.90
16285;DHT22;8250;52.426;9.450;2022-08-01T03:22:06;19.50;99.90
16285;DHT22;8250;52.426;9.450;2022-08-01T03:24:35;19.50;99.90
16285;DHT22;8250;52.426;9.450;2022-08-01T03:27:03;19.60;99.90
16285;DHT22;8250;52.426;9.450;2022-08-01T03:29:32;19.60;99.90
16285;DHT22;8250;52.426;9.450;2022-08-01T03:32:01;19.50;99.90
16285;DHT22;8250;52.426;9.450;2022-08-01T03:34:28;19.50;99.90
16285;DHT22;8250;52.426;9.450;2022-08-01T03:37:01;19.50;99.90
16285;DHT22;8250;52.426;9.450;2022-08-01T03:39:32;19.60;99.90
16285;DHT22;8250;52.426;9.450;2022-08-01T03:42:07;19.50;99.90
16285;DHT22;8250;52.426;9.450;2022-08-01T03:44:37;19.60;99.90
16285;DHT22;8250;52.426;9.450;2022-08-01T03:47:09;19.50;99.90
16285;DHT22;8250;52.426;9.450;2022-08-01T03:49:40;19.50;99.90
16285;DHT22;8250;52.426;9.450;2022-08-01T03:52:09;19.50;99.90
16285;DHT22;8250;52.426;9.450;2022-08-01T03:54:38;19.50;99.90
16285;DHT22;8250;52.426;9.450;2022-08-01T03:57:07;19.50;99.90
16285;DHT22;8250;52.426;9.450;2022-08-01T03:59:36;19.50;99.90
16285;DHT22;8250;52.426;9.450;2022-08-01T04:02:04;19.50;99.90
16285;DHT22;8250;52.426;9.450;2022-08-01T04:04:34;19.50;99.90
16285;DHT22;8250;52.426;9.450;2022-08-01T04:07:01;19.50;99.90
16285;DHT22;8250;52.426;9.450;2022-08-01T04:09:32;19.50;99.90
16285;DHT22;8250;52.426;9.450;2022-08-01T04:11:59;19.50;99.90
16285;DHT22;8250;52.426;9.450;2022-08-01T04:14:27;19.50;99.90
16285;DHT22;8250;52.426;9.450;2022-08-01T04:16:54;19.50;99.90
16285;DHT22;8250;52.426;9.450;2022-08-01T04:19:21;19.50;99.90
16285;DHT22;8250;52.426;9.450;2022-08-01T04:21:50;19.40;99.90
16285;DHT22;8250;52.426;9.450;2022-08-01T04:24:18;19.50;99.90
16285;DHT22;8250;52.426;9.450;2022-08-01T04:26:47;19.50;99.90
16285;DHT22;8250;52.426;9.450;2022-08-01T04:29:17;19.50;99.90
16285;DHT22;8250;52.426;9.450;2022-08-01T04:31:48;19.50;99.90
16285;DHT22;8250;52.426;9.450;2022-08-01T04:34:17;19.50;99.90
16285;DHT22;8250;52.426;9.450;2022-08-01T04:36:47;19.50;99.90
16285;DHT22;8250;52.426;9.450;2022-08-01T04:39:18;19.40;99.90
16285;DHT22;8250;52.426;9.450;2022-08-01T04:41:46;19.50;99.90
16285;DHT22;8250;52.426;9.450;2022-08-01T04:44:14;19.50;99.90
16285;DHT22;8250;52.426;9.450;2022-08-01T04:46:42;19.50;99.90
16285;DHT22;8250;52.426;9.450;2022-08-01T04:49:10;19.50;99.90
16285;DHT22;8250;52.426;9.450;2022-08-01T04:51:50;19.50;99.90
16285;DHT22;8250;52.426;9.450;2022-08-01T04:54:19;19.50;99.90
16285;DHT22;8250;52.426;9.450;2022-08-01T04:56:47;19.50;99.90
16285;DHT22;8250;52.426;9.450;2022-08-01T04:59:14;19.50;99.90
16285;DHT22;8250;52.426;9.450;2022-08-01T05:01:58;19.50;99.90
16285;DHT22;8250;52.426;9.450;2022-08-01T05:04:25;19.50;99.90
16285;DHT22;8250;52.426;9.450;2022-08-01T05:06:52;19.50;99.90
16285;DHT22;8250;52.426;9.450;2022-08-01T05:09:20;19.50;99.90
16285;DHT22;8250;52.426;9.450;2022-08-01T05:11:47;19.50;99.90
16285;DHT22;8250;52.426;9.450;2022-08-01T05:14:14;19.50;99.90
16285;DHT22;8250;52.426;9.450;2022-08-01T05:16:41;19.50;99.90
16285;DHT22;8250;52.426;9.450;2022-08-01T05:19:08;19.60;99.90
16285;DHT22;8250;52.426;9.450;2022-08-01T05:21:35;19.60;99.90
16285;DHT22;8250;52.426;9.450;2022-08-01T05:24:03;19.50;99.90
16285;DHT22;8250;52.426;9.450;2022-08-01T05:26:31;19.60;99.90
16285;DHT22;8250;52.426;9.450;2022-08-01T05:28:58;19.60;99.90
16285;DHT22;8250;52.426;9.450;2022-08-01T05:31:25;19.60;99.90
16285;DHT22;8250;52.426;9.450;2022-08-01T05:33:52;19.60;99.90
16285;DHT22;8250;52.426;9.450;2022-08-01T05:36:19;19.60;99.90
16285;DHT22;8250;52.426;9.450;2022-08-01T05:38:46;19.50;99.90
16285;DHT22;8250;52.426;9.450;2022-08-01T05:41:13;19.60;99.90
16285;DHT22;8250;52.426;9.450;2022-08-01T05:43:41;19.60;99.90
16285;DHT22;8250;52.426;9.450;2022-08-01T05:46:08;19.60;99.90
16285;DHT22;8250;52.426;9.450;2022-08-01T05:48:35;19.60;99.90
16285;DHT22;8250;52.426;9.450;2022-08-01T05:51:02;19.60;99.90
16285;DHT22;8250;52.426;9.450;2022-08-01T05:53:29;19.60;99.90
16285;DHT22;8250;52.426;9.450;2022-08-01T05:55:56;19.60;99.90
16285;DHT22;8250;52.426;9.450;2022-08-01T05:58:23;19.60;99.90
16285;DHT22;8250;52.426;9.450;2022-08-01T06:00:51;19.60;99.90
16285;DHT22;8250;52.426;9.450;2022-08-01T06:03:19;19.60;99.90
16285;DHT22;8250;52.426;9.450;2022-08-01T06:05:46;19.60;99.90
16285;DHT22;8250;52.426;9.450;2022-08-01T06:08:12;19.60;99.90
16285;DHT22;8250;52.426;9.450;2022-08-01T06:10:39;19.40;99.90
16285;DHT22;8250;52.426;9.450;2022-08-01T06:13:06;19.40;99.90
16285;DHT22;8250;52.426;9.450;2022-08-01T06:15:33;19.40;99.90
16285;DHT22;8250;52.426;9.450;2022-08-01T06:18:02;19.30;99.90
16285;DHT22;8250;52.426;9.450;2022-08-01T06:20:29;19.30;99.90
16285;DHT22;8250;52.426;9.450;2022-08-01T06:22:56;19.30;99.90
16285;DHT22;8250;52.426;9.450;2022-08-01T06:25:24;19.20;99.90
16285;DHT22;8250;52.426;9.450;2022-08-01T06:27:50;19.20;99.90
16285;DHT22;8250;52.426;9.450;2022-08-01T06:30:19;19.30;99.90
16285;DHT22;8250;52.426;9.450;2022-08-01T06:32:47;19.30;99.90
16285;DHT22;8250;52.426;9.450;2022-08-01T06:35:15;19.40;99.90
16285;DHT22;8250;52.426;9.450;2022-08-01T06:37:42;19.40;99.90
16285;DHT22;8250;52.426;9.450;2022-08-01T06:40:11;19.50;99.90
16285;DHT22;8250;52.426;9.450;2022-08-01T06:42:38;19.50;99.90
16285;DHT22;8250;52.426;9.450;2022-08-01T06:45:08;19.60;99.90
16285;DHT22;8250;52.426;9.450;2022-08-01T06:47:35;19.70;99.90
16285;DHT22;8250;52.426;9.450;2022-08-01T06:50:03;19.70;99.90
16285;DHT22;8250;52.426;9.450;2022-08-01T06:52:32;19.70;99.90
16285;DHT22;8250;52.426;9.450;2022-08-01T06:54:59;19.80;99.90
16285;DHT22;8250;52.426;9.450;2022-08-01T06:57:26;19.80;99.90
16285;DHT22;8250;52.426;9.450;2022-08-01T06:59:53;19.80;99.90
16285;DHT22;8250;52.426;9.450;2022-08-01T07:02:20;19.80;99.90
16285;DHT22;8250;52.426;9.450;2022-08-01T07:04:47;19.80;99.90
16285;DHT22;8250;52.426;9.450;2022-08-01T07:07:14;19.90;99.90
16285;DHT22;8250;52.426;9.450;2022-08-01T07:09:42;19.90;99.90
16285;DHT22;8250;52.426;9.450;2022-08-01T07:12:09;19.90;99.90
16285;DHT22;8250;52.426;9.450;2022-08-01T07:14:36;19.90;99.90
16285;DHT22;8250;52.426;9.450;2022-08-01T07:17:03;19.90;99.90
16285;DHT22;8250;52.426;9.450;2022-08-01T07:19:30;19.90;99.90
16285;DHT22;8250;52.426;9.450;2022-08-01T07:21:57;19.90;99.90
16285;DHT22;8250;52.426;9.450;2022-08-01T07:24:24;19.90;99.90
16285;DHT22;8250;52.426;9.450;2022-08-01T07:26:52;20.00;99.90
16285;DHT22;8250;52.426;9.450;2022-08-01T07:29:22;20.00;99.90
16285;DHT22;8250;52.426;9.450;2022-08-01T07:31:49;20.00;99.90
16285;DHT22;8250;52.426;9.450;2022-08-01T07:34:16;20.00;99.90
16285;DHT22;8250;52.426;9.450;2022-08-01T07:36:43;19.90;99.90
16285;DHT22;8250;52.426;9.450;2022-08-01T07:39:10;20.00;99.90
16285;DHT22;8250;52.426;9.450;2022-08-01T07:41:36;19.90;99.90
16285;DHT22;8250;52.426;9.450;2022-08-01T07:44:05;19.80;99.90
16285;DHT22;8250;52.426;9.450;2022-08-01T07:46:32;19.80;99.90
16285;DHT22;8250;52.426;9.450;2022-08-01T07:48:59;19.80;99.90
16285;DHT22;8250;52.426;9.450;2022-08-01T07:51:26;19.70;99.90
16285;DHT22;8250;52.426;9.450;2022-08-01T07:53:52;19.70;99.90
16285;DHT22;8250;52.426;9.450;2022-08-01T07:56:19;19.70;99.90
16285;DHT22;8250;52.426;9.450;2022-08-01T07:58:49;19.80;99.90
16285;DHT22;8250;52.426;9.450;2022-08-01T08:01:17;19.80;99.90
16285;DHT22;8250;52.426;9.450;2022-08-01T08:03:45;19.90;99.90
16285;DHT22;8250;52.426;9.450;2022-08-01T08:06:12;20.00;99.90
16285;DHT22;8250;52.426;9.450;2022-08-01T08:08:39;20.00;99.90
16285;DHT22;8250;52.426;9.450;2022-08-01T08:11:05;20.00;99.90
16285;DHT22;8250;52.426;9.450;2022-08-01T08:13:33;20.00;99.90
16285;DHT22;8250;52.426;9.450;2022-08-01T08:16:00;19.90;99.90
16285;DHT22;8250;52.426;9.450;2022-08-01T08:18:28;19.90;99.90
16285;DHT22;8250;52.426;9.450;2022-08-01T08:20:55;20.00;99.90
16285;DHT22;8250;52.426;9.450;2022-08-01T08:23:22;20.00;99.90
16285;DHT22;8250;52.426;9.450;2022-08-01T08:26:06;20.10;99.90
16285;DHT22;8250;52.426;9.450;2022-08-01T08:28:33;20.10;99.90
16285;DHT22;8250;52.426;9.450;2022-08-01T08:30:59;20.20;99.90
16285;DHT22;8250;52.426;9.450;2022-08-01T08:33:28;20.20;99.90
16285;DHT22;8250;52.426;9.450;2022-08-01T08:35:54;20.30;99.90
16285;DHT22;8250;52.426;9.450;2022-08-01T08:38:21;20.30;99.90
16285;DHT22;8250;52.426;9.450;2022-08-01T08:40:51;20.30;99.90
16285;DHT22;8250;52.426;9.450;2022-08-01T08:43:19;20.30;99.90
16285;DHT22;8250;52.426;9.450;2022-08-01T08:45:46;20.20;99.90
16285;DHT22;8250;52.426;9.450;2022-08-01T08:48:13;20.20;99.90
16285;DHT22;8250;52.426;9.450;2022-08-01T08:50:43;20.30;99.90
16285;DHT22;8250;52.426;9.450;2022-08-01T08:53:13;20.20;99.90
16285;DHT22;8250;52.426;9.450;2022-08-01T08:55:41;20.30;99.90
16285;DHT22;8250;52.426;9.450;2022-08-01T08:58:11;20.20;99.90
16285;DHT22;8250;52.426;9.450;2022-08-01T09:00:39;20.10;99.90
16285;DHT22;8250;52.426;9.450;2022-08-01T09:03:06;20.10;99.90
16285;DHT22;8250;52.426;9.450;2022-08-01T09:05:33;20.10;99.90
16285;DHT22;8250;52.426;9.450;2022-08-01T09:08:01;20.00;99.90
16285;DHT22;8250;52.426;9.450;2022-08-01T09:10:28;20.00;99.90
16285;DHT22;8250;52.426;9.450;2022-08-01T09:13:09;20.00;99.90
16285;DHT22;8250;52.426;9.450;2022-08-01T09:15:41;20.10;99.90
16285;DHT22;8250;52.426;9.450;2022-08-01T09:18:23;20.10;99.90
16285;DHT22;8250;52.426;9.450;2022-08-01T09:20:51;20.20;99.90
16285;DHT22;8250;52.426;9.450;2022-08-01T09:23:32;20.20;99.90
16285;DHT22;8250;52.426;9.450;2022-08-01T09:25:59;20.20;99.90
16285;DHT22;8250;52.426;9.450;2022-08-01T09:28:27;20.20;99.90
16285;DHT22;8250;52.426;9.450;2022-08-01T09:30:56;20.20;99.90
16285;DHT22;8250;52.426;9.450;2022-08-01T09:33:23;20.10;99.90
16285;DHT22;8250;52.426;9.450;2022-08-01T09:35:55;20.10;99.90
16285;DHT22;8250;52.426;9.450;2022-08-01T09:38:23;20.20;99.90
16285;DHT22;8250;52.426;9.450;2022-08-01T09:40:55;20.20;99.90
16285;DHT22;8250;52.426;9.450;2022-08-01T09:43:25;20.20;99.90
16285;DHT22;8250;52.426;9.450;2022-08-01T09:45:52;20.20;99.90
16285;DHT22;8250;52.426;9.450;2022-08-01T09:48:20;20.30;99.90
16285;DHT22;8250;52.426;9.450;2022-08-01T09:50:49;20.30;99.90
16285;DHT22;8250;52.426;9.450;2022-08-01T09:53:16;20.30;99.90
16285;DHT22;8250;52.426;9.450;2022-08-01T09:55:43;20.30;99.90
16285;DHT22;8250;52.426;9.450;2022-08-01T09:58:12;20.40;99.90
16285;DHT22;8250;52.426;9.450;2022-08-01T10:00:39;20.40;99.90
16285;DHT22;8250;52.426;9.450;2022-08-01T10:03:20;20.40;99.90
16285;DHT22;8250;52.426;9.450;2022-08-01T10:05:47;20.40;99.90
16285;DHT22;8250;52.426;9.450;2022-08-01T10:08:14;20.50;99.90
16285;DHT22;8250;52.426;9.450;2022-08-01T10:10:42;20.60;99.90
16285;DHT22;8250;52.426;9.450;2022-08-01T10:13:11;20.60;99.90
16285;DHT22;8250;52.426;9.450;2022-08-01T10:15:39;20.60;99.90
16285;DHT22;8250;52.426;9.450;2022-08-01T10:18:07;20.60;99.90
16285;DHT22;8250;52.426;9.450;2022-08-01T10:20:36;20.60;99.90
16285;DHT22;8250;52.426;9.450;2022-08-01T10:23:04;20.60;99.90
16285;DHT22;8250;52.426;9.450;2022-08-01T10:25:34;20.70;99.90
16285;DHT22;8250;52.426;9.450;2022-08-01T10:28:08;20.60;99.90
16285;DHT22;8250;52.426;9.450;2022-08-01T10:30:38;20.60;99.90
16285;DHT22;8250;52.426;9.450;2022-08-01T10:33:08;20.60;99.90
16285;DHT22;8250;52.426;9.450;2022-08-01T10:35:35;20.60;99.90
16285;DHT22;8250;52.426;9.450;2022-08-01T10:38:03;20.60;99.90
16285;DHT22;8250;52.426;9.450;2022-08-01T10:40:30;20.60;99.90
16285;DHT22;8250;52.426;9.450;2022-08-01T10:42:57;20.60;99.90
16285;DHT22;8250;52.426;9.450;2022-08-01T10:45:25;20.60;99.90
16285;DHT22;8250;52.426;9.450;2022-08-01T10:48:00;20.50;99.90
16285;DHT22;8250;52.426;9.450;2022-08-01T10:50:33;20.50;99.90
16285;DHT22;8250;52.426;9.450;2022-08-01T10:53:10;20.60;99.90
16285;DHT22;8250;52.426;9.450;2022-08-01T10:55:48;20.60;99.90
16285;DHT22;8250;52.426;9.450;2022-08-01T10:58:21;20.70;99.90
16285;DHT22;8250;52.426;9.450;2022-08-01T11:00:48;20.90;99.90
16285;DHT22;8250;52.426;9.450;2022-08-01T11:03:32;20.90;99.90
16285;DHT22;8250;52.426;9.450;2022-08-01T11:06:01;21.00;99.90
16285;DHT22;8250;52.426;9.450;2022-08-01T11:08:30;21.10;99.90
16285;DHT22;8250;52.426;9.450;2022-08-01T11:11:00;21.10;99.90
16285;DHT22;8250;52.426;9.450;2022-08-01T11:14:02;21.00;99.90
16285;DHT22;8250;52.426;9.450;2022-08-01T11:16:34;21.10;99.90
16285;DHT22;8250;52.426;9.450;2022-08-01T11:19:03;21.00;99.90
16285;DHT22;8250;52.426;9.450;2022-08-01T11:21:58;21.10;99.90
16285;DHT22;8250;52.426;9.450;2022-08-01T11:24:55;21.00;99.90
16285;DHT22;8250;52.426;9.450;2022-08-01T11:27:28;21.00;99.90
16285;DHT22;8250;52.426;9.450;2022-08-01T11:30:24;21.10;99.90
16285;DHT22;8250;52.426;9.450;2022-08-01T11:32:56;21.40;99.90
16285;DHT22;8250;52.426;9.450;2022-08-01T11:35:25;21.50;99.90
16285;DHT22;8250;52.426;9.450;2022-08-01T11:37:53;21.60;99.90
16285;DHT22;8250;52.426;9.450;2022-08-01T11:40:23;22.00;99.90
16285;DHT22;8250;52.426;9.450;2022-08-01T11:43:17;22.40;99.90
16285;DHT22;8250;52.426;9.450;2022-08-01T11:45:48;22.50;99.90
16285;DHT22;8250;52.426;9.450;2022-08-01T11:48:19;22.50;99.90
16285;DHT22;8250;52.426;9.450;2022-08-01T11:50:50;22.60;99.90
16285;DHT22;8250;52.426;9.450;2022-08-01T11:53:17;22.50;99.90
16285;DHT22;8250;52.426;9.450;2022-08-01T11:55:46;22.50;99.90
16285;DHT22;8250;52.426;9.450;2022-08-01T11:58:15;22.50;99.90
16285;DHT22;8250;52.426;9.450;2022-08-01T12:00:50;22.40;99.90
16285;DHT22;8250;52.426;9.450;2022-08-01T12:03:24;22.30;99.90
16285;DHT22;8250;52.426;9.450;2022-08-01T12:05:53;22.30;99.90
16285;DHT22;8250;52.426;9.450;2022-08-01T12:08:25;22.30;99.90
16285;DHT22;8250;52.426;9.450;2022-08-01T12:10:52;22.30;99.90
16285;DHT22;8250;52.426;9.450;2022-08-01T12:13:19;22.30;99.90
16285;DHT22;8250;52.426;9.450;2022-08-01T12:15:47;22.40;99.90
16285;DHT22;8250;52.426;9.450;2022-08-01T12:18:15;22.50;99.90
16285;DHT22;8250;52.426;9.450;2022-08-01T12:20:44;22.50;99.90
16285;DHT22;8250;52.426;9.450;2022-08-01T12:23:14;22.40;99.90
16285;DHT22;8250;52.426;9.450;2022-08-01T12:25:42;22.30;99.90
16285;DHT22;8250;52.426;9.450;2022-08-01T12:28:10;22.30;99.90
16285;DHT22;8250;52.426;9.450;2022-08-01T12:30:38;22.30;99.90
16285;DHT22;8250;52.426;9.450;2022-08-01T12:33:07;22.20;99.90
16285;DHT22;8250;52.426;9.450;2022-08-01T12:35:35;22.20;99.90
16285;DHT22;8250;52.426;9.450;2022-08-01T12:38:03;22.30;99.90
16285;DHT22;8250;52.426;9.450;2022-08-01T12:40:34;22.30;99.90
16285;DHT22;8250;52.426;9.450;2022-08-01T12:43:03;22.30;99.90
16285;DHT22;8250;52.426;9.450;2022-08-01T12:45:33;22.40;99.90
16285;DHT22;8250;52.426;9.450;2022-08-01T12:48:02;22.40;99.90
16285;DHT22;8250;52.426;9.450;2022-08-01T12:50:37;22.40;99.90
16285;DHT22;8250;52.426;9.450;2022-08-01T12:53:04;22.40;99.90
16285;DHT22;8250;52.426;9.450;2022-08-01T12:55:33;22.50;99.90
16285;DHT22;8250;52.426;9.450;2022-08-01T12:58:11;22.40;99.90
16285;DHT22;8250;52.426;9.450;2022-08-01T13:00:39;22.40;99.90
16285;DHT22;8250;52.426;9.450;2022-08-01T13:03:10;22.50;99.90
16285;DHT22;8250;52.426;9.450;2022-08-01T13:05:42;22.50;99.90
16285;DHT22;8250;52.426;9.450;2022-08-01T13:08:10;22.50;99.90
16285;DHT22;8250;52.426;9.450;2022-08-01T13:10:40;22.60;99.90
16285;DHT22;8250;52.426;9.450;2022-08-01T13:13:08;22.60;99.90
16285;DHT22;8250;52.426;9.450;2022-08-01T13:15:37;22.50;99.90
16285;DHT22;8250;52.426;9.450;2022-08-01T13:18:23;22.60;99.90
16285;DHT22;8250;52.426;9.450;2022-08-01T13:20:51;22.60;99.90
16285;DHT22;8250;52.426;9.450;2022-08-01T13:23:33;22.50;99.90
16285;DHT22;8250;52.426;9.450;2022-08-01T13:26:01;22.50;99.90
16285;DHT22;8250;52.426;9.450;2022-08-01T13:28:29;22.50;99.90
16285;DHT22;8250;52.426;9.450;2022-08-01T13:30:58;22.50;99.90
16285;DHT22;8250;52.426;9.450;2022-08-01T13:33:27;22.50;99.90
16285;DHT22;8250;52.426;9.450;2022-08-01T13:35:56;22.50;99.90
16285;DHT22;8250;52.426;9.450;2022-08-01T13:38:23;22.50;99.90
16285;DHT22;8250;52.426;9.450;2022-08-01T13:41:05;22.40;99.90
16285;DHT22;8250;52.426;9.450;2022-08-01T13:43:32;22.30;99.90
16285;DHT22;8250;52.426;9.450;2022-08-01T13:46:00;22.30;99.90
16285;DHT22;8250;52.426;9.450;2022-08-01T13:48:28;22.30;99.90
16285;DHT22;8250;52.426;9.450;2022-08-01T13:50:55;22.20;99.90
16285;DHT22;8250;52.426;9.450;2022-08-01T13:53:23;22.30;99.90
16285;DHT22;8250;52.426;9.450;2022-08-01T13:55:50;22.30;99.90
16285;DHT22;8250;52.426;9.450;2022-08-01T13:58:18;22.40;99.90
16285;DHT22;8250;52.426;9.450;2022-08-01T14:00:45;22.40;99.90
16285;DHT22;8250;52.426;9.450;2022-08-01T14:03:13;22.50;99.90
16285;DHT22;8250;52.426;9.450;2022-08-01T14:05:42;22.40;99.90
16285;DHT22;8250;52.426;9.450;2022-08-01T14:08:09;22.50;99.90
16285;DHT22;8250;52.426;9.450;2022-08-01T14:10:36;22.60;99.90
16285;DHT22;8250;52.426;9.450;2022-08-01T14:13:03;22.60;99.90
16285;DHT22;8250;52.426;9.450;2022-08-01T14:15:31;22.60;99.90
16285;DHT22;8250;52.426;9.450;2022-08-01T14:17:58;22.60;99.90
16285;DHT22;8250;52.426;9.450;2022-08-01T14:20:25;22.70;99.90
16285;DHT22;8250;52.426;9.450;2022-08-01T14:22:52;22.70;99.90
16285;DHT22;8250;52.426;9.450;2022-08-01T14:25:19;22.70;99.90
16285;DHT22;8250;52.426;9.450;2022-08-01T14:27:46;22.70;99.90
16285;DHT22;8250;52.426;9.450;2022-08-01T14:30:13;22.60;99.90
16285;DHT22;8250;52.426;9.450;2022-08-01T14:32:42;22.60;99.90
16285;DHT22;8250;52.426;9.450;2022-08-01T14:35:09;22.50;99.90
16285;DHT22;8250;52.426;9.450;2022-08-01T14:37:36;22.50;99.90
16285;DHT22;8250;52.426;9.450;2022-08-01T14:40:04;22.50;99.90
16285;DHT22;8250;52.426;9.450;2022-08-01T14:42:34;22.40;99.90
16285;DHT22;8250;52.426;9.450;2022-08-01T14:45:02;22.40;99.90
16285;DHT22;8250;52.426;9.450;2022-08-01T14:47:33;22.40;99.90
16285;DHT22;8250;52.426;9.450;2022-08-01T14:50:03;22.40;99.90
16285;DHT22;8250;52.426;9.450;2022-08-01T14:52:30;22.40;99.90
16285;DHT22;8250;52.426;9.450;2022-08-01T14:54:57;22.40;99.90
16285;DHT22;8250;52.426;9.450;2022-08-01T14:57:23;22.50;99.90
16285;DHT22;8250;52.426;9.450;2022-08-01T14:59:50;22.50;99.90
16285;DHT22;8250;52.426;9.450;2022-08-01T15:02:17;22.50;99.90
16285;DHT22;8250;52.426;9.450;2022-08-01T15:04:44;22.50;99.90
16285;DHT22;8250;52.426;9.450;2022-08-01T15:07:13;22.60;99.90
16285;DHT22;8250;52.426;9.450;2022-08-01T15:09:41;22.60;99.90
16285;DHT22;8250;52.426;9.450;2022-08-01T15:12:09;22.60;99.90
16285;DHT22;8250;52.426;9.450;2022-08-01T15:14:36;22.60;99.90
16285;DHT22;8250;52.426;9.450;2022-08-01T15:17:16;22.60;99.90
16285;DHT22;8250;52.426;9.450;2022-08-01T15:19:43;22.50;99.90
16285;DHT22;8250;52.426;9.450;2022-08-01T15:22:09;22.60;99.90
16285;DHT22;8250;52.426;9.450;2022-08-01T15:24:38;22.50;99.90
16285;DHT22;8250;52.426;9.450;2022-08-01T15:27:05;22.50;99.90
16285;DHT22;8250;52.426;9.450;2022-08-01T15:29:32;22.40;99.90
16285;DHT22;8250;52.426;9.450;2022-08-01T15:31:59;22.40;99.90
16285;DHT22;8250;52.426;9.450;2022-08-01T15:34:26;22.50;99.90
16285;DHT22;8250;52.426;9.450;2022-08-01T15:36:53;22.50;99.90
16285;DHT22;8250;52.426;9.450;2022-08-01T15:39:20;22.60;99.90
16285;DHT22;8250;52.426;9.450;2022-08-01T15:41:48;22.60;99.90
16285;DHT22;8250;52.426;9.450;2022-08-01T15:44:15;22.60;99.90
16285;DHT22;8250;52.426;9.450;2022-08-01T15:46:45;22.70;99.90
16285;DHT22;8250;52.426;9.450;2022-08-01T15:49:12;22.60;99.90
16285;DHT22;8250;52.426;9.450;2022-08-01T15:51:40;22.60;99.90
16285;DHT22;8250;52.426;9.450;2022-08-01T15:54:06;22.70;99.90
16285;DHT22;8250;52.426;9.450;2022-08-01T15:56:35;22.70;99.90
16285;DHT22;8250;52.426;9.450;2022-08-01T15:59:03;22.70;99.90